Aviation Digital Data Service (ADDS)

Output produced by METARs form (0428 UTC 26 June 2019)
found at http://www.aviationweather.gov/metar/data/
 
Forecast for: WAPP (AMBON/PATTIMURA , ID)
Text: TAF WAPP 252300Z 2600/2624 16008KT 6000 -RA BKN017
Forecast period: 0000 UTC 26 June 2019 to 0000 UTC 27 June 2019
Forecast type: FROM: standard forecast or significant change
Winds: from the SSE (160 degrees) at 9 MPH (8 knots; 4.1 m/s)
Visibility: 4 miles (6 km)
Ceiling: 1700 feet AGL
Clouds: broken clouds at 1700 feet AGL
Weather: -RA  (light rain)